Terminal Aerodrome Forecast
Issued by NWS Charleston, WV

Current Version | Previous Version | Text Only | Print | Product List | Glossary Off
Versions: 1 2 3 4 5 6 7 8 9 10 11 12 13 14 15 16 17 18 19 20 21 22 23 24 25 26

000
FTUS41 KRLX 012335
TAFEKN
TAF
KEKN 012335Z 0200/0224 29006KT P6SM FEW060
     FM020300 00000KT P6SM FEW060
     FM020600 00000KT 4SM BR SCT001
     FM020900 00000KT 1/4SM FG VV001
     FM021200 00000KT 1 1/2SM BR SCT001
     FM021300 28005KT P6SM SCT050=

USA.gov is the U.S. government's official web portal to all federal, state and local government web resources and services.